Time;durP1;ratioP1;P1;durP2;ratioP2;P2;SDS_P1;SDS_P2;PMS_P1;PMS_P2;Temp;Humidity;BMP_temperature;BMP_pressure;BME280_temperature;BME280_humidity;BME280_pressure;Samples;Min_cycle;Max_cycle;Signal;HPM_P1;HPM_P2
2022/07/02 00:00:44;;;;;;;7.90;3.55;;;14.00;99.90;;;;;;5026182;28;20140;-78
2022/07/02 00:03:12;;;;;;;7.90;3.03;;;13.90;99.90;;;;;;5032642;28;20410;-78
2022/07/02 00:05:46;;;;;;;6.05;3.10;;;13.90;99.90;;;;;;5037493;28;20022;-77
2022/07/02 00:08:13;;;;;;;4.97;3.03;;;13.90;99.90;;;;;;5026580;28;20506;-78
2022/07/02 00:10:42;;;;;;;3.88;2.92;;;13.90;99.90;;;;;;5017721;28;20041;-77
2022/07/02 00:13:08;;;;;;;5.13;3.08;;;13.90;99.90;;;;;;5019067;28;20041;-77
2022/07/02 00:15:34;;;;;;;6.20;2.88;;;13.90;99.90;;;;;;5002111;28;20033;-77
2022/07/02 00:18:00;;;;;;;7.20;3.08;;;13.90;99.90;;;;;;5004613;28;20049;-77
2022/07/02 00:20:25;;;;;;;4.88;2.83;;;13.80;99.90;;;;;;5033760;28;20117;-77
2022/07/02 00:22:53;;;;;;;7.25;3.20;;;13.80;99.90;;;;;;5027646;28;20033;-77
2022/07/02 00:25:19;;;;;;;4.28;2.95;;;13.80;99.90;;;;;;5036116;28;20056;-77
2022/07/02 00:27:45;;;;;;;6.45;3.03;;;13.80;99.90;;;;;;5035477;28;20396;-77
2022/07/02 00:30:14;;;;;;;6.55;3.05;;;13.80;99.90;;;;;;5042466;28;20195;-77
2022/07/02 00:32:41;;;;;;;6.55;3.20;;;13.80;99.90;;;;;;5005303;28;20037;-77
2022/07/02 00:35:09;;;;;;;4.30;2.88;;;13.80;99.90;;;;;;5041464;28;20040;-77
2022/07/02 00:37:37;;;;;;;6.32;3.00;;;13.80;99.90;;;;;;5013941;28;20042;-76
2022/07/02 00:40:04;;;;;;;5.07;3.08;;;13.80;99.90;;;;;;5036616;28;20069;-77
2022/07/02 00:42:31;;;;;;;5.82;3.08;;;13.80;99.90;;;;;;5054376;28;20490;-77
2022/07/02 00:44:58;;;;;;;5.30;3.30;;;13.80;99.90;;;;;;5021955;28;20380;-77
2022/07/02 00:47:25;;;;;;;4.10;3.10;;;13.70;99.90;;;;;;5028952;28;20179;-77
2022/07/02 00:49:51;;;;;;;6.82;3.25;;;13.70;99.90;;;;;;5029398;28;20100;-77
2022/07/02 00:52:17;;;;;;;4.13;3.38;;;13.70;99.90;;;;;;5025436;28;20026;-77
2022/07/02 00:54:43;;;;;;;5.50;2.97;;;13.70;99.90;;;;;;5011819;28;20117;-77
2022/07/02 00:57:08;;;;;;;4.43;3.08;;;13.70;99.90;;;;;;5008807;28;20133;-77
2022/07/02 00:59:35;;;;;;;4.35;3.60;;;13.70;99.90;;;;;;5019679;28;20164;-77
2022/07/02 01:02:01;;;;;;;6.05;3.33;;;13.60;99.90;;;;;;5040088;28;20036;-76
2022/07/02 01:04:30;;;;;;;7.03;3.50;;;13.60;99.90;;;;;;5049871;28;20041;-77
2022/07/02 01:07:03;;;;;;;5.82;3.08;;;13.50;99.90;;;;;;5041999;28;20034;-77
2022/07/02 01:12:18;;;;;;;5.53;3.30;;;13.40;99.90;;;;;;5020549;28;20041;-77
2022/07/02 01:14:45;;;;;;;6.90;3.80;;;13.40;99.90;;;;;;5021432;28;20517;-77
2022/07/02 01:17:11;;;;;;;4.90;3.28;;;13.30;99.90;;;;;;5007734;28;20045;-77
2022/07/02 01:19:36;;;;;;;6.35;3.55;;;13.30;99.90;;;;;;5017536;28;20049;-76
2022/07/02 01:22:23;;;;;;;4.50;3.20;;;13.30;99.90;;;;;;5014219;28;20108;-77
2022/07/02 01:24:51;;;;;;;6.60;3.67;;;13.30;99.90;;;;;;5018273;28;20191;-76
2022/07/02 01:27:18;;;;;;;6.97;3.55;;;13.20;99.90;;;;;;5036186;28;20042;-77
2022/07/02 01:29:44;;;;;;;6.60;3.75;;;12.70;99.90;;;;;;4999553;28;20042;-77
2022/07/02 01:32:11;;;;;;;8.20;3.80;;;13.20;99.90;;;;;;5033261;28;20025;-77
2022/07/02 01:34:41;;;;;;;9.02;3.63;;;13.20;99.90;;;;;;5005995;28;20030;-77
2022/07/02 01:37:11;;;;;;;6.70;3.60;;;13.10;99.90;;;;;;5020707;28;20115;-77
2022/07/02 01:39:38;;;;;;;4.35;3.35;;;13.10;99.90;;;;;;5028639;28;20060;-77
2022/07/02 01:42:06;;;;;;;4.93;3.22;;;13.10;99.90;;;;;;5027349;28;20430;-76
2022/07/02 01:44:33;;;;;;;6.82;3.72;;;13.00;99.90;;;;;;5033681;28;20037;-76
2022/07/02 01:47:01;;;;;;;5.18;3.10;;;13.00;99.90;;;;;;5027365;28;20099;-77
2022/07/02 01:49:27;;;;;;;7.82;3.72;;;12.90;99.90;;;;;;5015596;28;20037;-77
2022/07/02 01:51:53;;;;;;;7.57;3.80;;;12.90;99.90;;;;;;5029653;28;20060;-76
2022/07/02 01:54:19;;;;;;;8.18;3.47;;;12.90;99.90;;;;;;4992719;28;20073;-77
2022/07/02 01:56:44;;;;;;;6.72;3.70;;;12.80;99.90;;;;;;5004674;28;20034;-78
2022/07/02 01:59:10;;;;;;;6.30;3.83;;;12.80;99.90;;;;;;5024769;28;20187;-77
2022/07/02 02:01:36;;;;;;;5.60;4.38;;;12.80;99.90;;;;;;4976826;28;20037;-77
2022/07/02 02:04:02;;;;;;;6.03;3.90;;;12.70;99.90;;;;;;5010795;28;20052;-77
2022/07/02 02:06:28;;;;;;;14.52;4.72;;;12.70;99.90;;;;;;4992607;28;20049;-77
2022/07/02 02:08:54;;;;;;;5.63;3.95;;;12.70;99.90;;;;;;5009682;28;20398;-77
2022/07/02 02:11:20;;;;;;;7.50;4.00;;;12.60;99.90;;;;;;5013001;28;20245;-76
2022/07/02 02:13:46;;;;;;;5.35;4.25;;;12.60;99.90;;;;;;5010197;28;20046;-77
2022/07/02 02:16:11;;;;;;;8.57;4.80;;;12.60;99.90;;;;;;5010014;28;20036;-76
2022/07/02 02:18:37;;;;;;;6.50;4.63;;;12.60;99.90;;;;;;5010105;28;20494;-77
2022/07/02 02:21:03;;;;;;;8.23;4.68;;;12.60;99.90;;;;;;4997811;28;20117;-77
2022/07/02 02:23:29;;;;;;;9.98;5.03;;;12.60;99.90;;;;;;4994450;28;20037;-77
2022/07/02 02:25:54;;;;;;;7.57;5.32;;;12.70;99.90;;;;;;5025439;28;20057;-76
2022/07/02 02:28:22;;;;;;;5.60;4.47;;;12.70;99.90;;;;;;5034330;28;20450;-77
2022/07/02 02:30:48;;;;;;;7.18;4.10;;;12.70;99.90;;;;;;5009084;28;20033;-76
2022/07/02 02:33:14;;;;;;;7.57;5.10;;;12.80;99.90;;;;;;5026665;28;20044;-77
2022/07/02 02:35:39;;;;;;;7.50;4.40;;;12.80;99.90;;;;;;5023973;28;20028;-77
2022/07/02 02:38:05;;;;;;;8.23;4.53;;;12.80;99.90;;;;;;4996386;28;20572;-76
2022/07/02 02:40:31;;;;;;;8.55;4.85;;;12.80;99.90;;;;;;5006707;28;20527;-77
2022/07/02 02:42:57;;;;;;;9.07;5.40;;;12.80;99.90;;;;;;5025001;28;20037;-77
2022/07/02 02:45:23;;;;;;;7.57;4.82;;;12.80;99.90;;;;;;5021714;28;20572;-77
2022/07/02 02:47:48;;;;;;;9.57;5.28;;;12.80;99.90;;;;;;5009125;28;20041;-77
2022/07/02 02:50:14;;;;;;;5.88;5.28;;;12.80;99.90;;;;;;4994589;28;20052;-77
2022/07/02 02:52:40;;;;;;;6.70;4.63;;;12.80;99.90;;;;;;5009991;28;20053;-77
2022/07/02 02:55:06;;;;;;;8.38;5.13;;;12.90;99.90;;;;;;5026926;28;20069;-77
2022/07/02 02:57:32;;;;;;;9.10;5.50;;;12.80;99.90;;;;;;5027157;28;20045;-77
2022/07/02 02:59:58;;;;;;;7.22;5.30;;;12.80;99.90;;;;;;5010443;28;20118;-77
2022/07/02 03:02:24;;;;;;;11.07;5.45;;;12.80;99.90;;;;;;5006618;28;20118;-76
2022/07/02 03:04:49;;;;;;;9.60;5.22;;;12.80;99.90;;;;;;5001141;28;20041;-77
2022/07/02 03:07:15;;;;;;;6.03;5.00;;;12.80;99.90;;;;;;5026400;28;20041;-77
2022/07/02 03:09:41;;;;;;;11.10;5.32;;;12.80;99.90;;;;;;4992158;28;20034;-76
2022/07/02 03:12:08;;;;;;;8.73;5.47;;;12.80;99.90;;;;;;5010674;28;20454;-77
2022/07/02 03:14:33;;;;;;;8.35;5.28;;;12.80;99.90;;;;;;4994162;28;20753;-76
2022/07/02 03:16:59;;;;;;;6.75;5.03;;;12.80;99.90;;;;;;5009482;28;20037;-76
2022/07/02 03:19:24;;;;;;;9.27;5.28;;;12.70;99.90;;;;;;5016270;28;20052;-77
2022/07/02 03:21:50;;;;;;;9.93;5.20;;;12.70;99.90;;;;;;5009034;28;20051;-77
2022/07/02 03:24:16;;;;;;;8.40;5.45;;;12.70;99.90;;;;;;4993862;28;20053;-77
2022/07/02 03:26:42;;;;;;;6.97;5.80;;;12.70;99.90;;;;;;5007361;28;20042;-77
2022/07/02 03:29:08;;;;;;;8.75;5.75;;;12.70;99.90;;;;;;5006224;28;20533;-77
2022/07/02 03:31:33;;;;;;;10.98;6.10;;;12.60;99.90;;;;;;5020399;28;20033;-77
2022/07/02 03:34:01;;;;;;;13.32;5.75;;;12.60;99.90;;;;;;5023612;28;20041;-77
2022/07/02 03:36:27;;;;;;;11.48;5.38;;;12.60;99.90;;;;;;5025407;28;20053;-77
2022/07/02 03:38:53;;;;;;;8.18;5.43;;;12.60;99.90;;;;;;5015946;28;20058;-77
2022/07/02 03:41:19;;;;;;;10.38;6.00;;;12.70;99.90;;;;;;5026335;28;20041;-77
2022/07/02 03:43:44;;;;;;;12.05;6.35;;;12.70;99.90;;;;;;5012257;28;20402;-77
2022/07/02 03:46:10;;;;;;;8.90;5.57;;;12.70;99.90;;;;;;4999990;28;20399;-77
2022/07/02 03:48:36;;;;;;;8.20;6.03;;;12.60;99.90;;;;;;5019120;28;20618;-77
2022/07/02 03:51:01;;;;;;;8.10;6.00;;;12.70;99.90;;;;;;5025500;28;20484;-77
2022/07/02 03:53:27;;;;;;;8.43;5.40;;;12.60;99.90;;;;;;5004688;28;20044;-77
2022/07/02 03:55:56;;;;;;;6.97;5.28;;;12.60;99.90;;;;;;5027853;28;20381;-77
2022/07/02 03:58:22;;;;;;;10.18;6.40;;;12.60;99.90;;;;;;4992061;28;20049;-77
2022/07/02 04:00:47;;;;;;;8.35;6.20;;;12.60;99.90;;;;;;5023934;28;20411;-77
2022/07/02 04:03:13;;;;;;;10.70;6.03;;;12.50;99.90;;;;;;4997156;28;20085;-77
2022/07/02 04:05:39;;;;;;;10.15;6.65;;;12.50;99.90;;;;;;5030674;28;20083;-77
2022/07/02 04:08:04;;;;;;;8.88;5.78;;;12.40;99.90;;;;;;4991072;28;20065;-77
2022/07/02 04:10:30;;;;;;;10.40;5.60;;;12.40;99.90;;;;;;5009993;28;20105;-78
2022/07/02 04:12:56;;;;;;;8.63;5.72;;;12.50;99.90;;;;;;5027606;28;20051;-77
2022/07/02 04:15:22;;;;;;;7.60;6.30;;;12.40;99.90;;;;;;5011613;28;20039;-77
2022/07/02 04:17:47;;;;;;;6.63;5.93;;;12.40;99.90;;;;;;4980932;28;20506;-77
2022/07/02 04:20:13;;;;;;;10.35;6.20;;;12.40;99.90;;;;;;5031761;28;20080;-78
2022/07/02 04:22:39;;;;;;;8.90;6.38;;;12.40;99.90;;;;;;5028081;28;20546;-77
2022/07/02 04:25:05;;;;;;;7.03;6.07;;;12.40;99.90;;;;;;5031693;28;20041;-77
2022/07/02 04:27:31;;;;;;;10.50;6.82;;;12.40;99.90;;;;;;5026224;28;20491;-77
2022/07/02 04:29:57;;;;;;;9.80;6.15;;;12.50;99.90;;;;;;4980729;28;20049;-78
2022/07/02 04:32:23;;;;;;;10.65;6.13;;;12.50;99.90;;;;;;5013024;28;20077;-77
2022/07/02 04:34:48;;;;;;;10.57;6.85;;;12.50;99.90;;;;;;4996213;28;20041;-78
2022/07/02 04:37:14;;;;;;;8.07;6.15;;;12.60;99.90;;;;;;5012589;28;20094;-78
2022/07/02 04:39:40;;;;;;;10.65;6.57;;;12.70;99.90;;;;;;5028998;28;20144;-78
2022/07/02 04:42:05;;;;;;;7.75;5.93;;;12.80;99.90;;;;;;5012979;28;20521;-77
2022/07/02 04:44:31;;;;;;;9.93;5.65;;;12.90;99.90;;;;;;5028797;28;20044;-78
2022/07/02 04:46:57;;;;;;;9.10;6.05;;;12.90;99.90;;;;;;5012930;28;20049;-78
2022/07/02 04:49:23;;;;;;;11.07;6.03;;;13.00;99.90;;;;;;5029227;28;20091;-78
2022/07/02 04:51:49;;;;;;;11.80;6.68;;;13.10;99.90;;;;;;5027846;28;20038;-78
2022/07/02 04:54:15;;;;;;;9.00;5.85;;;13.20;99.90;;;;;;5012597;28;20038;-78
2022/07/02 04:56:41;;;;;;;12.68;6.63;;;13.20;99.90;;;;;;5028258;28;20140;-78
2022/07/02 04:59:06;;;;;;;10.23;6.53;;;13.30;99.90;;;;;;4996644;28;20087;-78
2022/07/02 05:01:32;;;;;;;9.32;6.05;;;13.30;99.90;;;;;;5007290;28;20037;-78
2022/07/02 05:03:58;;;;;;;7.95;6.03;;;13.30;99.90;;;;;;5028644;28;20041;-78
2022/07/02 05:06:23;;;;;;;7.50;6.70;;;13.40;99.90;;;;;;5012256;28;20042;-78
2022/07/02 05:08:52;;;;;;;7.05;5.65;;;13.40;99.90;;;;;;5028664;28;20499;-78
2022/07/02 05:11:19;;;;;;;6.75;5.47;;;13.50;99.90;;;;;;5026539;28;20120;-78
2022/07/02 05:13:49;;;;;;;8.43;5.18;;;13.60;99.90;;;;;;5009991;28;20045;-78
2022/07/02 05:16:15;;;;;;;8.98;5.28;;;13.70;99.90;;;;;;5029817;28;20029;-79
2022/07/02 05:18:41;;;;;;;7.20;5.35;;;13.80;99.90;;;;;;5027356;28;20091;-79
2022/07/02 05:21:07;;;;;;;7.68;5.05;;;13.80;99.90;;;;;;5012670;28;20034;-78
2022/07/02 05:23:33;;;;;;;7.35;5.32;;;13.90;99.90;;;;;;5045250;28;20384;-79
2022/07/02 05:25:59;;;;;;;6.68;5.47;;;14.00;99.90;;;;;;5013559;28;20045;-78
2022/07/02 05:28:28;;;;;;;8.77;5.72;;;14.00;99.90;;;;;;5030181;28;20045;-79
2022/07/02 05:30:54;;;;;;;8.05;5.80;;;14.10;99.90;;;;;;5029009;28;20052;-78
2022/07/02 05:33:20;;;;;;;9.23;5.70;;;14.10;99.90;;;;;;5025043;28;20125;-79
2022/07/02 05:35:46;;;;;;;8.88;5.85;;;14.20;99.90;;;;;;5030405;28;20112;-79
2022/07/02 05:38:12;;;;;;;7.63;5.85;;;14.30;99.90;;;;;;5030344;28;20562;-79
2022/07/02 05:40:38;;;;;;;12.32;6.43;;;14.30;99.90;;;;;;5038453;28;20125;-78
2022/07/02 05:43:03;;;;;;;8.32;6.45;;;14.30;99.90;;;;;;5030209;28;20069;-80
2022/07/02 05:45:29;;;;;;;9.68;5.78;;;14.40;99.90;;;;;;5028003;28;20514;-79
2022/07/02 05:47:55;;;;;;;9.25;5.25;;;14.50;99.90;;;;;;5014409;28;20065;-79
2022/07/02 05:50:20;;;;;;;7.78;5.80;;;14.50;99.90;;;;;;5028461;28;20475;-79
2022/07/02 05:52:47;;;;;;;7.35;5.57;;;14.60;99.90;;;;;;5010362;28;20044;-79
2022/07/02 05:55:14;;;;;;;6.43;4.30;;;14.80;99.90;;;;;;5032736;28;20068;-79
2022/07/02 05:57:39;;;;;;;8.07;5.10;;;14.70;99.90;;;;;;5010493;28;20053;-79
2022/07/02 06:00:07;;;;;;;7.65;5.43;;;14.70;99.90;;;;;;5029702;28;20103;-79
2022/07/02 06:02:32;;;;;;;5.55;4.70;;;14.80;99.90;;;;;;5012200;28;20075;-78
2022/07/02 06:04:58;;;;;;;7.75;5.47;;;14.80;99.90;;;;;;5027470;28;20061;-79
2022/07/02 06:07:39;;;;;;;7.05;4.65;;;14.90;99.90;;;;;;5011522;28;20040;-79
2022/07/02 06:10:06;;;;;;;9.35;4.20;;;15.00;99.90;;;;;;5029428;28;20034;-79
2022/07/02 06:12:32;;;;;;;6.63;3.35;;;15.00;99.90;;;;;;4986441;28;20478;-79
2022/07/02 06:14:58;;;;;;;6.18;3.60;;;15.10;99.90;;;;;;5027799;28;20083;-79
2022/07/02 06:17:24;;;;;;;5.72;3.40;;;15.10;99.90;;;;;;5005286;28;20430;-79
2022/07/02 06:19:51;;;;;;;5.80;3.65;;;15.20;99.90;;;;;;5031820;28;20076;-79
2022/07/02 06:22:17;;;;;;;8.32;3.40;;;15.30;99.90;;;;;;5026720;28;20041;-79
2022/07/02 06:24:45;;;;;;;5.75;3.40;;;15.30;99.90;;;;;;5013851;28;20040;-79
2022/07/02 06:27:11;;;;;;;5.82;3.10;;;15.40;99.90;;;;;;5027155;28;20038;-79
2022/07/02 06:29:37;;;;;;;6.97;3.45;;;15.50;99.90;;;;;;5022527;28;20433;-79
2022/07/02 06:32:04;;;;;;;5.35;3.15;;;15.60;99.90;;;;;;5012767;28;20029;-79
2022/07/02 06:34:29;;;;;;;4.90;3.05;;;15.60;99.90;;;;;;5020241;28;20037;-79
2022/07/02 06:36:55;;;;;;;6.60;3.25;;;15.70;99.90;;;;;;4996968;28;20063;-79
2022/07/02 06:39:21;;;;;;;6.10;2.97;;;15.80;99.90;;;;;;5028699;28;20149;-79
2022/07/02 06:44:31;;;;;;;6.15;2.70;;;16.00;99.90;;;;;;5024967;28;20045;-79
2022/07/02 06:46:57;;;;;;;6.30;2.83;;;16.10;99.90;;;;;;5032347;28;20050;-79
2022/07/02 06:49:22;;;;;;;7.60;2.88;;;16.10;99.90;;;;;;5030234;28;20065;-80
2022/07/02 06:51:48;;;;;;;4.43;2.75;;;16.20;99.90;;;;;;5019403;28;20099;-80
2022/07/02 06:54:14;;;;;;;3.22;2.80;;;16.40;99.90;;;;;;5037822;28;20041;-79
2022/07/02 06:56:40;;;;;;;6.80;2.80;;;16.40;99.90;;;;;;5011295;28;20068;-79
2022/07/02 06:59:06;;;;;;;6.45;2.97;;;16.60;99.90;;;;;;5028818;28;20052;-79
2022/07/02 07:01:32;;;;;;;5.97;3.20;;;16.70;99.90;;;;;;4989469;28;20042;-79
2022/07/02 07:03:58;;;;;;;4.22;2.83;;;16.80;99.90;;;;;;5001047;28;20123;-78
2022/07/02 07:06:25;;;;;;;6.15;2.80;;;16.90;99.90;;;;;;5011642;28;20112;-79
2022/07/02 07:08:53;;;;;;;5.05;2.55;;;17.00;99.90;;;;;;5012886;28;20120;-80
2022/07/02 07:11:22;;;;;;;3.47;2.50;;;17.10;99.90;;;;;;5011876;28;20042;-79
2022/07/02 07:13:50;;;;;;;3.63;2.30;;;17.20;99.90;;;;;;5041414;28;20067;-79
2022/07/02 07:16:16;;;;;;;3.55;2.30;;;17.30;99.90;;;;;;5044115;28;20052;-79
2022/07/02 07:18:45;;;;;;;4.28;2.20;;;17.40;99.90;;;;;;4988915;28;20030;-78
2022/07/02 07:21:11;;;;;;;2.67;1.60;;;17.40;99.90;;;;;;4981685;28;20041;-79
2022/07/02 07:23:37;;;;;;;3.35;1.90;;;17.60;99.90;;;;;;5005529;28;20037;-79
2022/07/02 07:26:02;;;;;;;5.20;2.45;;;17.70;99.90;;;;;;5005701;28;20120;-80
2022/07/02 07:28:28;;;;;;;3.28;1.40;;;17.80;99.90;;;;;;5011437;28;20044;-79
2022/07/02 07:30:55;;;;;;;3.38;1.63;;;17.90;99.90;;;;;;5008887;28;20037;-78
2022/07/02 07:33:20;;;;;;;3.20;1.90;;;17.90;99.90;;;;;;5044361;28;20083;-78
2022/07/02 07:35:46;;;;;;;3.95;1.98;;;18.00;99.90;;;;;;5041082;28;20445;-79
2022/07/02 07:38:12;;;;;;;3.08;1.48;;;18.10;99.90;;;;;;5011876;28;20064;-79
2022/07/02 07:40:38;;;;;;;2.47;1.60;;;18.20;99.90;;;;;;5009365;28;20041;-78
2022/07/02 07:43:04;;;;;;;2.42;1.60;;;18.40;99.90;;;;;;5024694;28;20034;-78
2022/07/02 07:45:30;;;;;;;3.67;1.60;;;18.40;99.90;;;;;;5012855;28;20049;-78
2022/07/02 07:47:56;;;;;;;5.20;1.48;;;18.40;99.90;;;;;;5013597;28;20524;-78
2022/07/02 07:50:22;;;;;;;2.25;1.58;;;18.50;99.90;;;;;;5047242;28;20041;-78
2022/07/02 07:52:48;;;;;;;2.50;1.42;;;18.60;99.90;;;;;;5012227;28;20133;-78
2022/07/02 07:55:14;;;;;;;3.42;1.67;;;18.70;99.90;;;;;;5007167;28;20543;-78
2022/07/02 07:57:40;;;;;;;3.15;1.35;;;18.80;99.90;;;;;;5009880;28;20511;-78
2022/07/02 08:00:07;;;;;;;2.95;1.77;;;18.90;99.80;;;;;;4981291;28;20073;-81
2022/07/02 08:02:33;;;;;;;5.18;1.38;;;18.90;99.10;;;;;;5034133;28;20121;-79
2022/07/02 08:04:58;;;;;;;4.35;1.65;;;19.00;99.40;;;;;;5031760;28;20070;-80
2022/07/02 08:07:24;;;;;;;2.95;1.50;;;19.10;99.00;;;;;;5011279;28;20457;-79
2022/07/02 08:09:53;;;;;;;1.70;1.02;;;19.10;99.00;;;;;;5012640;28;20037;-78
2022/07/02 08:12:22;;;;;;;1.98;1.23;;;19.20;99.40;;;;;;5018065;28;20049;-80
2022/07/02 08:14:48;;;;;;;2.58;1.25;;;19.40;99.00;;;;;;5032694;28;20060;-79
2022/07/02 08:17:15;;;;;;;3.70;1.52;;;19.40;99.10;;;;;;5000749;28;20533;-79
2022/07/02 08:19:40;;;;;;;2.85;1.58;;;19.60;98.90;;;;;;5035982;28;20037;-78
2022/07/02 08:22:06;;;;;;;7.78;1.30;;;19.70;98.70;;;;;;5035344;28;20048;-79
2022/07/02 08:24:32;;;;;;;4.80;1.30;;;19.80;98.80;;;;;;5039415;28;20045;-78
2022/07/02 08:26:58;;;;;;;4.72;0.95;;;20.00;98.50;;;;;;5038502;28;20045;-78
2022/07/02 08:29:24;;;;;;;2.30;1.92;;;20.10;98.30;;;;;;5012951;28;20033;-79
2022/07/02 08:31:50;;;;;;;3.38;1.58;;;20.20;98.30;;;;;;5014559;28;20545;-78
2022/07/02 08:34:16;;;;;;;3.47;1.67;;;20.30;97.90;;;;;;5007837;28;20041;-79
2022/07/02 08:36:41;;;;;;;1.95;1.25;;;20.30;97.80;;;;;;5021285;28;20168;-79
2022/07/02 08:39:07;;;;;;;4.35;1.40;;;20.50;97.90;;;;;;5024315;28;20053;-78
2022/07/02 08:41:35;;;;;;;3.38;1.30;;;20.50;98.10;;;;;;4989485;28;20038;-79
2022/07/02 08:44:05;;;;;;;2.83;1.30;;;20.60;98.20;;;;;;5052309;28;20387;-78
2022/07/02 08:46:32;;;;;;;5.75;1.50;;;20.80;97.90;;;;;;5012960;28;20054;-78
2022/07/02 08:49:00;;;;;;;3.40;1.58;;;20.80;95.90;;;;;;5000366;28;20709;-78
2022/07/02 08:51:26;;;;;;;2.17;1.38;;;20.80;96.50;;;;;;5038151;28;20046;-79
2022/07/02 08:53:51;;;;;;;5.10;1.85;;;20.90;96.60;;;;;;5026674;28;20069;-78
2022/07/02 08:56:18;;;;;;;4.20;1.30;;;20.90;96.10;;;;;;5014464;28;20211;-78
2022/07/02 08:58:45;;;;;;;2.35;1.30;;;20.80;95.40;;;;;;5005436;28;20060;-78
2022/07/02 09:01:12;;;;;;;3.42;1.30;;;20.90;96.00;;;;;;5032366;28;20126;-78
2022/07/02 09:03:38;;;;;;;2.15;1.23;;;21.10;96.40;;;;;;5012156;28;20045;-78
2022/07/02 09:06:08;;;;;;;1.98;1.10;;;21.20;96.40;;;;;;5032257;28;20116;-78
2022/07/02 09:08:33;;;;;;;3.28;1.40;;;21.40;96.80;;;;;;5008855;28;20038;-77
2022/07/02 09:11:00;;;;;;;2.17;1.40;;;21.50;96.40;;;;;;5030093;28;20044;-76
2022/07/02 09:13:27;;;;;;;3.42;1.20;;;21.60;95.50;;;;;;5039998;28;20034;-77
2022/07/02 09:15:54;;;;;;;3.13;1.30;;;21.60;96.00;;;;;;5029121;28;20651;-77
2022/07/02 09:18:20;;;;;;;3.63;1.70;;;21.80;96.10;;;;;;5011870;28;20033;-77
2022/07/02 09:20:46;;;;;;;5.70;1.73;;;21.90;95.80;;;;;;5010644;28;20055;-78
2022/07/02 09:23:20;;;;;;;2.58;1.52;;;22.00;95.50;;;;;;5013989;28;20052;-77
2022/07/02 09:25:52;;;;;;;3.28;1.60;;;22.10;95.60;;;;;;5028780;28;20041;-77
2022/07/02 09:28:18;;;;;;;1.30;1.20;;;22.20;94.80;;;;;;5027103;28;20109;-77
2022/07/02 09:30:44;;;;;;;3.17;1.15;;;22.30;95.30;;;;;;5014379;28;20037;-77
2022/07/02 09:33:35;;;;;;;2.67;1.45;;;22.40;95.90;;;;;;5012053;28;20045;-78
2022/07/02 09:36:11;;;;;;;3.67;1.30;;;22.50;94.90;;;;;;5034699;28;20065;-77
2022/07/02 09:38:45;;;;;;;1.88;1.00;;;22.40;93.90;;;;;;5010857;28;20053;-77
2022/07/02 09:41:13;;;;;;;2.72;1.45;;;22.50;94.60;;;;;;5020839;28;20116;-78
2022/07/02 09:43:40;;;;;;;3.05;1.00;;;22.60;95.00;;;;;;5020545;28;20037;-78
2022/07/02 09:46:20;;;;;;;2.80;1.23;;;22.60;94.10;;;;;;5029113;28;20495;-77
2022/07/02 09:48:47;;;;;;;4.63;1.65;;;22.50;92.90;;;;;;5022393;28;20504;-77
2022/07/02 09:51:14;;;;;;;2.33;1.45;;;22.50;93.80;;;;;;5011589;28;20030;-80
2022/07/02 09:53:54;;;;;;;3.83;1.58;;;22.40;93.20;;;;;;5012297;28;20498;-78
2022/07/02 09:56:21;;;;;;;5.22;1.40;;;22.20;93.40;;;;;;5014590;28;20047;-79
2022/07/02 09:58:48;;;;;;;3.10;1.42;;;22.10;93.30;;;;;;5022563;28;20091;-78
2022/07/02 10:01:21;;;;;;;4.97;1.40;;;22.20;93.50;;;;;;5007647;28;20056;-79
2022/07/02 10:03:56;;;;;;;3.17;1.40;;;22.40;93.90;;;;;;5023430;28;20103;-77
2022/07/02 10:06:21;;;;;;;6.07;1.48;;;22.60;93.80;;;;;;4997396;28;20033;-78
2022/07/02 10:08:48;;;;;;;3.45;1.30;;;22.80;94.10;;;;;;5040766;28;20156;-78
2022/07/02 10:11:15;;;;;;;4.55;1.30;;;23.10;94.50;;;;;;5021151;28;20499;-79
2022/07/02 10:13:41;;;;;;;3.75;1.40;;;23.20;94.10;;;;;;5013373;28;20037;-79
2022/07/02 10:16:14;;;;;;;3.63;1.20;;;23.30;93.70;;;;;;5029759;28;20037;-78
2022/07/02 10:18:44;;;;;;;3.85;1.58;;;23.30;93.00;;;;;;5031942;28;20037;-79
2022/07/02 10:21:16;;;;;;;4.05;1.35;;;23.40;92.40;;;;;;5022207;28;20034;-78
2022/07/02 10:23:46;;;;;;;3.03;1.20;;;23.40;92.70;;;;;;5026975;28;20041;-79
2022/07/02 10:26:12;;;;;;;1.45;1.20;;;23.20;92.20;;;;;;5016908;28;20073;-79
2022/07/02 10:28:38;;;;;;;2.88;1.20;;;23.20;92.40;;;;;;4990041;28;20042;-78
2022/07/02 10:31:06;;;;;;;3.17;1.50;;;23.20;92.60;;;;;;5008991;28;20044;-79
2022/07/02 10:33:44;;;;;;;1.85;0.90;;;23.10;92.30;;;;;;5031000;28;20042;-79
2022/07/02 10:36:13;;;;;;;1.63;1.00;;;23.10;91.50;;;;;;5013332;28;20038;-79
2022/07/02 10:38:39;;;;;;;2.63;1.55;;;23.20;91.70;;;;;;5030227;28;20119;-79
2022/07/02 10:41:07;;;;;;;2.75;1.38;;;23.10;91.40;;;;;;5037598;28;20568;-78
2022/07/02 10:43:37;;;;;;;6.22;1.40;;;22.90;91.10;;;;;;5028954;28;20201;-79
2022/07/02 10:46:13;;;;;;;2.05;1.08;;;22.70;91.20;;;;;;5027646;28;20045;-79
2022/07/02 10:48:51;;;;;;;4.50;1.52;;;22.70;91.50;;;;;;5026863;28;20037;-78
2022/07/02 10:51:23;;;;;;;1.55;1.10;;;22.80;91.60;;;;;;5024979;28;20037;-78
2022/07/02 10:53:56;;;;;;;3.85;1.60;;;23.00;90.90;;;;;;5035082;28;20041;-79
2022/07/02 10:56:23;;;;;;;7.57;1.38;;;22.90;91.40;;;;;;5041135;28;20056;-79
2022/07/02 10:58:49;;;;;;;4.68;1.60;;;22.70;91.30;;;;;;5016822;28;20037;-79
2022/07/02 11:01:21;;;;;;;2.70;1.30;;;22.40;91.10;;;;;;5012804;28;20124;-78
2022/07/02 11:03:50;;;;;;;3.38;1.35;;;22.20;91.10;;;;;;5038568;28;20049;-79
2022/07/02 11:06:30;;;;;;;1.73;1.13;;;22.20;91.60;;;;;;5035689;28;20037;-79
2022/07/02 11:09:07;;;;;;;2.22;1.38;;;22.40;91.40;;;;;;5005950;28;20045;-79
2022/07/02 11:11:34;;;;;;;2.83;1.13;;;22.30;91.60;;;;;;5008814;28;20168;-80
2022/07/02 11:14:07;;;;;;;2.20;1.40;;;22.20;91.20;;;;;;5025937;28;20045;-78
2022/07/02 11:16:49;;;;;;;3.70;1.48;;;22.10;91.30;;;;;;5030504;28;20053;-78
2022/07/02 11:19:17;;;;;;;1.95;1.50;;;22.30;91.80;;;;;;5027965;28;20037;-79
2022/07/02 11:21:44;;;;;;;3.88;1.60;;;22.50;91.90;;;;;;5024806;28;20065;-78
2022/07/02 11:24:10;;;;;;;3.65;1.40;;;22.70;91.70;;;;;;5036280;28;20038;-79
2022/07/02 11:26:41;;;;;;;3.78;1.58;;;22.60;91.60;;;;;;5002023;28;20164;-79
2022/07/02 11:29:07;;;;;;;3.20;1.60;;;22.40;91.20;;;;;;5029980;28;20530;-79
2022/07/02 11:31:36;;;;;;;4.35;1.33;;;22.20;91.90;;;;;;5012489;28;20041;-79
2022/07/02 11:34:02;;;;;;;2.03;0.90;;;22.10;92.20;;;;;;5026203;28;20036;-79
2022/07/02 11:36:31;;;;;;;3.17;1.30;;;22.00;92.20;;;;;;5038547;28;20033;-79
2022/07/02 11:38:57;;;;;;;1.30;0.98;;;22.10;92.20;;;;;;4981057;28;20054;-79
2022/07/02 11:41:26;;;;;;;1.45;1.20;;;22.10;92.20;;;;;;5041808;28;20049;-79
2022/07/02 11:43:57;;;;;;;2.58;1.48;;;22.10;92.40;;;;;;5015112;28;20503;-78
2022/07/02 11:46:25;;;;;;;4.27;1.60;;;22.10;92.00;;;;;;5041130;28;20099;-78
2022/07/02 11:48:52;;;;;;;5.15;1.67;;;22.00;92.20;;;;;;5012486;28;20038;-79
2022/07/02 11:51:21;;;;;;;6.05;1.60;;;22.10;92.50;;;;;;5043911;28;20037;-78
2022/07/02 11:53:57;;;;;;;3.10;1.40;;;22.40;92.40;;;;;;5025144;28;20037;-78
2022/07/02 11:56:23;;;;;;;2.63;1.42;;;22.70;92.40;;;;;;5031102;28;20038;-78
2022/07/02 11:58:49;;;;;;;2.38;1.35;;;23.00;92.10;;;;;;5024073;28;20037;-79
2022/07/02 12:01:19;;;;;;;4.38;1.45;;;22.90;91.60;;;;;;5034730;28;20524;-79
2022/07/02 12:03:45;;;;;;;4.95;1.58;;;22.80;92.00;;;;;;5005900;28;20033;-79
2022/07/02 12:06:14;;;;;;;3.90;1.30;;;22.90;92.20;;;;;;4993125;28;20096;-79
2022/07/02 12:08:41;;;;;;;2.45;1.30;;;22.80;92.10;;;;;;5036087;28;20038;-79
2022/07/02 12:11:14;;;;;;;1.88;1.25;;;22.80;92.10;;;;;;5030489;28;20436;-79
2022/07/02 12:13:41;;;;;;;5.35;1.60;;;22.90;91.10;;;;;;5010893;28;20099;-79
2022/07/02 12:16:11;;;;;;;3.38;1.70;;;23.10;91.80;;;;;;5044762;28;20398;-79
2022/07/02 12:18:36;;;;;;;4.45;1.45;;;23.20;91.60;;;;;;5016458;28;20049;-79
2022/07/02 12:21:13;;;;;;;7.13;1.65;;;23.40;91.90;;;;;;5057431;28;20326;-78
2022/07/02 12:23:47;;;;;;;4.35;1.60;;;23.40;91.60;;;;;;5021750;28;20411;-79
2022/07/02 12:26:39;;;;;;;3.80;1.77;;;23.30;91.20;;;;;;5040852;28;20041;-79
2022/07/02 12:31:54;;;;;;;2.03;1.30;;;23.20;92.10;;;;;;5025378;28;20455;-79
2022/07/02 12:34:24;;;;;;;3.30;1.40;;;23.20;91.80;;;;;;5026148;28;20409;-79
2022/07/02 12:36:55;;;;;;;2.20;1.48;;;23.10;91.40;;;;;;5024800;28;20418;-79
2022/07/02 12:39:23;;;;;;;3.08;1.30;;;22.90;91.30;;;;;;5045375;28;20438;-80
2022/07/02 12:41:49;;;;;;;3.42;1.63;;;22.80;90.70;;;;;;5015367;28;20625;-80
2022/07/02 12:44:19;;;;;;;3.47;1.02;;;23.00;91.50;;;;;;5021182;28;20040;-80
2022/07/02 12:46:52;;;;;;;3.90;1.25;;;23.30;91.10;;;;;;5030806;28;20084;-80
2022/07/02 12:49:22;;;;;;;2.97;1.27;;;23.50;90.50;;;;;;5032084;28;20090;-81
2022/07/02 12:51:59;;;;;;;2.67;1.30;;;23.60;90.20;;;;;;5021172;28;20053;-80
2022/07/02 12:54:39;;;;;;;3.13;1.33;;;23.70;90.90;;;;;;5021512;28;20495;-80